createdAt,value
2023-01-10T00:00:27.228Z,5.79
2023-01-10T00:02:53.807Z,5.78
2023-01-10T00:05:20.722Z,5.81
2023-01-10T00:07:47.348Z,5.82
2023-01-10T00:10:14.380Z,5.81
2023-01-10T00:12:59.977Z,5.85
2023-01-10T00:15:26.501Z,5.84
2023-01-10T00:17:53.454Z,5.85
2023-01-10T00:20:19.980Z,5.84
2023-01-10T00:22:46.835Z,5.82
2023-01-10T00:25:13.726Z,5.90
2023-01-10T00:27:40.478Z,5.88
2023-01-10T00:30:14.231Z,5.87
2023-01-10T00:32:45.316Z,5.93
2023-01-10T00:35:13.163Z,5.94
2023-01-10T00:37:40.080Z,5.85
2023-01-10T00:40:09.285Z,5.87
2023-01-10T00:42:55.487Z,5.86
2023-01-10T00:45:24.858Z,5.90
2023-01-10T00:47:52.217Z,5.92
2023-01-10T00:50:18.897Z,5.97
2023-01-10T00:52:45.659Z,5.97
2023-01-10T00:55:12.346Z,6.02
2023-01-10T00:57:39.271Z,6.01
2023-01-10T01:00:09.330Z,5.97
2023-01-10T01:02:36.533Z,5.97
2023-01-10T01:05:04.515Z,5.96
2023-01-10T01:07:31.027Z,5.96
2023-01-10T01:10:16.409Z,5.95
2023-01-10T01:12:42.848Z,5.93
2023-01-10T01:15:09.752Z,5.90
2023-01-10T01:17:36.167Z,5.87
2023-01-10T01:20:02.720Z,5.88
2023-01-10T01:22:29.387Z,5.81
2023-01-10T01:24:56.556Z,5.74
2023-01-10T01:27:23.047Z,5.78
2023-01-10T01:29:49.870Z,5.75
2023-01-10T01:32:16.520Z,5.70
2023-01-10T01:34:43.640Z,5.70
2023-01-10T01:37:10.119Z,5.70
2023-01-10T01:39:36.776Z,5.64
2023-01-10T01:42:05.174Z,5.60
2023-01-10T01:44:35.780Z,5.61
2023-01-10T01:47:06.951Z,5.67
2023-01-10T01:49:41.005Z,5.58
2023-01-10T01:52:32.587Z,5.57
2023-01-10T01:55:19.192Z,5.56
2023-01-10T01:58:13.776Z,5.56
2023-01-10T02:01:00.702Z,5.62
2023-01-10T02:03:51.594Z,5.58
2023-01-10T02:06:38.315Z,5.60
2023-01-10T02:09:17.631Z,5.66
2023-01-10T02:11:45.153Z,5.53
2023-01-10T02:14:14.469Z,5.57
2023-01-10T02:16:40.936Z,5.55
2023-01-10T02:19:24.266Z,5.55
2023-01-10T02:22:17.112Z,5.51
2023-01-10T02:25:05.525Z,5.54
2023-01-10T02:27:46.173Z,5.56
2023-01-10T02:30:51.031Z,5.45
2023-01-10T02:33:27.589Z,5.54
2023-01-10T02:36:09.002Z,5.52
2023-01-10T02:38:42.101Z,5.54
2023-01-10T02:41:28.789Z,5.65
2023-01-10T02:44:02.344Z,5.68
2023-01-10T02:46:31.494Z,5.59
2023-01-10T02:48:58.361Z,5.62
2023-01-10T02:51:28.212Z,5.63
2023-01-10T02:54:12.143Z,5.71
2023-01-10T02:56:42.887Z,5.69
2023-01-10T02:59:20.064Z,5.73
2023-01-10T03:02:05.120Z,5.77
2023-01-10T03:04:59.980Z,5.81
2023-01-10T03:07:45.952Z,5.79
2023-01-10T03:10:19.479Z,5.75
2023-01-10T03:12:52.071Z,5.75
2023-01-10T03:15:21.549Z,5.72
2023-01-10T03:17:53.653Z,5.69
2023-01-10T03:20:22.159Z,5.68
2023-01-10T03:22:49.832Z,5.61
2023-01-10T03:25:19.367Z,5.66
2023-01-10T03:27:57.158Z,5.71
2023-01-10T03:30:28.232Z,5.60
2023-01-10T03:32:57.154Z,5.66
2023-01-10T03:35:34.008Z,5.74
2023-01-10T03:38:12.714Z,5.72
2023-01-10T03:41:05.202Z,5.61
2023-01-10T03:44:06.277Z,5.65
2023-01-10T03:46:42.045Z,5.62
2023-01-10T03:49:10.846Z,5.61
2023-01-10T03:51:39.626Z,5.63
2023-01-10T03:54:06.573Z,5.62
2023-01-10T03:56:44.788Z,5.62
2023-01-10T03:59:11.853Z,5.64
2023-01-10T04:01:38.382Z,5.67
2023-01-10T04:04:05.556Z,5.67
2023-01-10T04:06:32.010Z,5.68
2023-01-10T04:08:59.124Z,5.68
2023-01-10T04:11:25.628Z,5.68
2023-01-10T04:13:52.155Z,5.65
2023-01-10T04:16:18.650Z,5.64
2023-01-10T04:18:46.022Z,5.63
2023-01-10T04:21:12.511Z,5.61
2023-01-10T04:23:39.394Z,5.61
2023-01-10T04:26:08.503Z,5.59
2023-01-10T04:28:35.388Z,5.56
2023-01-10T04:31:01.865Z,5.51
2023-01-10T04:33:28.919Z,5.57
2023-01-10T04:35:55.359Z,5.52
2023-01-10T04:38:22.452Z,5.48
2023-01-10T04:40:54.339Z,5.50
2023-01-10T04:43:21.768Z,5.51
2023-01-10T04:45:48.811Z,5.49
2023-01-10T04:48:15.402Z,5.49
2023-01-10T04:50:42.082Z,5.51
2023-01-10T04:53:08.648Z,5.46
2023-01-10T04:55:35.491Z,5.51
2023-01-10T04:58:02.511Z,5.50
2023-01-10T05:00:29.228Z,5.51
2023-01-10T05:02:57.374Z,5.48
2023-01-10T05:05:24.789Z,5.49
2023-01-10T05:07:52.027Z,5.49
2023-01-10T05:10:18.503Z,5.50
2023-01-10T05:12:46.593Z,5.47
2023-01-10T05:15:14.180Z,5.49
2023-01-10T05:17:41.121Z,5.46
2023-01-10T05:20:08.778Z,5.43
2023-01-10T05:22:36.099Z,5.49
2023-01-10T05:25:02.639Z,5.44
2023-01-10T05:27:29.621Z,5.42
2023-01-10T05:29:56.270Z,5.47
2023-01-10T05:32:22.898Z,5.40
2023-01-10T05:34:49.802Z,5.45
2023-01-10T05:37:16.570Z,5.44
2023-01-10T05:39:43.568Z,5.47
2023-01-10T05:42:09.966Z,5.45
2023-01-10T05:44:36.592Z,5.48
2023-01-10T05:47:03.431Z,5.40
2023-01-10T05:49:29.891Z,5.41
2023-01-10T05:51:57.092Z,5.43
2023-01-10T05:54:23.811Z,5.43
2023-01-10T05:56:50.510Z,5.40
2023-01-10T05:59:28.152Z,5.38
2023-01-10T06:01:55.527Z,5.34
2023-01-10T06:04:22.307Z,5.35
2023-01-10T06:06:48.838Z,5.31
2023-01-10T06:09:15.408Z,5.35
2023-01-10T06:11:41.915Z,5.35
2023-01-10T06:14:08.414Z,5.32
2023-01-10T06:16:34.946Z,5.31
2023-01-10T06:19:01.507Z,5.33
2023-01-10T06:21:28.406Z,5.34
2023-01-10T06:23:54.872Z,5.32
2023-01-10T06:26:21.320Z,5.33
2023-01-10T06:28:48.486Z,5.34
2023-01-10T06:31:15.078Z,5.38
2023-01-10T06:33:44.117Z,5.31
2023-01-10T06:36:11.249Z,5.33
2023-01-10T06:38:38.264Z,5.31
2023-01-10T06:41:13.309Z,5.39
2023-01-10T06:43:47.496Z,5.38
2023-01-10T06:46:16.800Z,5.39
2023-01-10T06:48:45.406Z,5.35
2023-01-10T06:51:15.024Z,5.37
2023-01-10T06:53:42.219Z,5.36
2023-01-10T06:56:10.059Z,5.26
2023-01-10T06:58:41.729Z,5.33
2023-01-10T07:01:14.450Z,5.28
2023-01-10T07:03:41.197Z,5.21
2023-01-10T07:06:10.116Z,5.28
2023-01-10T07:08:37.751Z,5.33
2023-01-10T07:11:04.424Z,5.30
2023-01-10T07:13:32.608Z,5.28
2023-01-10T07:16:07.481Z,5.29
2023-01-10T07:18:35.692Z,5.28
2023-01-10T07:21:02.703Z,5.32
2023-01-10T07:23:31.572Z,5.28
2023-01-10T07:26:02.141Z,5.22
2023-01-10T07:28:28.668Z,5.19
2023-01-10T07:30:59.934Z,5.19
2023-01-10T07:33:26.735Z,5.19
2023-01-10T07:35:53.474Z,5.18
2023-01-10T07:38:19.982Z,5.23
2023-01-10T07:40:46.573Z,5.25
2023-01-10T07:43:12.951Z,5.23
2023-01-10T07:45:39.460Z,5.22
2023-01-10T07:48:06.342Z,5.21
2023-01-10T07:50:35.470Z,5.23
2023-01-10T07:53:05.282Z,5.21
2023-01-10T07:55:34.634Z,5.26
2023-01-10T07:58:01.344Z,5.30
2023-01-10T08:00:28.157Z,5.35
2023-01-10T08:02:56.032Z,5.32
2023-01-10T08:05:23.406Z,5.36
2023-01-10T08:07:50.244Z,5.26
2023-01-10T08:10:17.701Z,5.27
2023-01-10T08:12:44.179Z,5.22
2023-01-10T08:15:10.943Z,5.21
2023-01-10T08:17:37.473Z,5.21
2023-01-10T08:20:04.524Z,5.25
2023-01-10T08:22:30.919Z,5.24
2023-01-10T08:24:57.369Z,5.24
2023-01-10T08:27:23.915Z,5.32
2023-01-10T08:29:50.696Z,5.25
2023-01-10T08:32:17.296Z,5.29
2023-01-10T08:34:43.731Z,5.22
2023-01-10T08:37:13.295Z,5.22
2023-01-10T08:39:39.905Z,5.35
2023-01-10T08:42:06.421Z,5.37
2023-01-10T08:44:33.315Z,5.32
2023-01-10T08:46:59.827Z,5.45
2023-01-10T08:49:26.737Z,5.40
2023-01-10T08:51:53.153Z,5.40
2023-01-10T08:54:19.651Z,5.39
2023-01-10T08:56:46.046Z,5.35
2023-01-10T08:59:12.706Z,5.45
2023-01-10T09:01:39.265Z,5.46
2023-01-10T09:04:05.843Z,5.44
2023-01-10T09:06:32.285Z,5.46
2023-01-10T09:08:58.778Z,5.47
2023-01-10T09:11:25.566Z,5.48
2023-01-10T09:13:52.109Z,5.47
2023-01-10T09:16:19.255Z,5.51
2023-01-10T09:18:46.239Z,5.60
2023-01-10T09:21:12.732Z,5.59
2023-01-10T09:23:40.457Z,5.63
2023-01-10T09:26:06.944Z,5.62
2023-01-10T09:28:33.774Z,5.67
2023-01-10T09:31:01.262Z,5.64
2023-01-10T09:33:34.982Z,5.67
2023-01-10T09:36:13.504Z,5.75
2023-01-10T09:38:39.973Z,5.64
2023-01-10T09:41:48.975Z,5.66
2023-01-10T09:44:46.196Z,5.73
2023-01-10T09:47:23.399Z,5.71
2023-01-10T09:49:55.908Z,5.69
2023-01-10T09:52:39.902Z,5.71
2023-01-10T09:55:18.355Z,5.74
2023-01-10T09:57:46.344Z,5.72
2023-01-10T10:00:20.851Z,5.74
2023-01-10T10:02:52.546Z,5.76
2023-01-10T10:05:19.037Z,5.78
2023-01-10T10:07:51.089Z,5.82
2023-01-10T10:10:23.638Z,5.73
2023-01-10T10:13:26.401Z,5.83
2023-01-10T10:16:04.419Z,5.82
2023-01-10T10:18:45.286Z,5.82
2023-01-10T10:21:33.466Z,5.81
2023-01-10T10:24:15.603Z,5.85
2023-01-10T10:27:08.468Z,5.87
2023-01-10T10:29:53.734Z,6.00
2023-01-10T10:32:27.341Z,5.94
2023-01-10T10:35:00.971Z,5.86
2023-01-10T10:37:35.816Z,5.93
2023-01-10T10:40:02.383Z,5.98
2023-01-10T10:42:35.346Z,6.04
2023-01-10T10:45:06.148Z,6.03
2023-01-10T10:47:36.017Z,6.00
2023-01-10T10:50:15.547Z,6.04
2023-01-10T10:52:43.841Z,6.07
2023-01-10T10:55:16.786Z,6.04
2023-01-10T10:57:59.105Z,6.07
2023-01-10T11:00:28.388Z,6.01
2023-01-10T11:03:33.760Z,6.03
2023-01-10T11:06:01.262Z,6.07
2023-01-10T11:08:30.104Z,6.08
2023-01-10T11:10:59.337Z,6.14
2023-01-10T11:13:35.016Z,6.18
2023-01-10T11:16:05.826Z,6.12
2023-01-10T11:18:33.167Z,6.17
2023-01-10T11:21:11.315Z,6.25
2023-01-10T11:23:48.998Z,6.19
2023-01-10T11:26:40.301Z,6.21
2023-01-10T11:29:14.751Z,6.21
2023-01-10T11:31:42.069Z,6.25
2023-01-10T11:34:23.490Z,6.22
2023-01-10T11:37:04.819Z,6.27
2023-01-10T11:39:33.145Z,6.32
2023-01-10T11:42:29.620Z,6.35
2023-01-10T11:45:20.055Z,6.37
2023-01-10T11:47:51.859Z,6.42
2023-01-10T11:50:32.264Z,6.59
2023-01-10T11:52:58.825Z,6.63
2023-01-10T11:55:28.030Z,6.65
2023-01-10T11:58:00.262Z,6.54
2023-01-10T12:00:58.732Z,6.62
2023-01-10T12:03:34.858Z,6.70
2023-01-10T12:06:08.493Z,6.76
2023-01-10T12:08:37.163Z,6.76
2023-01-10T12:11:27.412Z,6.74
2023-01-10T12:13:57.982Z,6.67
2023-01-10T12:16:29.010Z,6.58
2023-01-10T12:19:01.958Z,6.64
2023-01-10T12:21:50.444Z,6.59
2023-01-10T12:24:30.923Z,6.54
2023-01-10T12:26:57.704Z,6.53
2023-01-10T12:29:28.989Z,6.53
2023-01-10T12:31:58.327Z,6.47
2023-01-10T12:34:41.747Z,6.48
2023-01-10T12:37:22.028Z,6.48
2023-01-10T12:39:59.344Z,6.48
2023-01-10T12:43:03.653Z,6.46
2023-01-10T12:45:39.802Z,6.51
2023-01-10T12:48:15.312Z,6.57
2023-01-10T12:50:46.072Z,6.56
2023-01-10T12:53:15.726Z,6.65
2023-01-10T12:55:45.226Z,6.68
2023-01-10T12:58:22.013Z,6.69
2023-01-10T13:00:53.720Z,6.76
2023-01-10T13:03:22.656Z,6.78
2023-01-10T13:05:51.885Z,6.86
2023-01-10T13:08:23.442Z,6.87
2023-01-10T13:10:53.957Z,6.85
2023-01-10T13:13:26.251Z,6.82
2023-01-10T13:15:58.781Z,6.78
2023-01-10T13:18:29.216Z,6.76
2023-01-10T13:21:08.944Z,6.68
2023-01-10T13:23:45.446Z,6.70
2023-01-10T13:26:12.397Z,6.76
2023-01-10T13:28:52.513Z,6.73
2023-01-10T13:31:33.397Z,6.67
2023-01-10T13:34:13.566Z,6.68
2023-01-10T13:36:43.798Z,6.64
2023-01-10T13:39:23.856Z,6.71
2023-01-10T13:42:18.379Z,6.79
2023-01-10T13:45:00.555Z,6.82
2023-01-10T13:47:39.335Z,6.79
2023-01-10T13:50:24.109Z,6.78
2023-01-10T13:52:54.447Z,6.82
2023-01-10T13:55:28.783Z,6.84
2023-01-10T13:58:00.245Z,6.80
2023-01-10T14:00:51.707Z,6.84
2023-01-10T14:03:43.256Z,6.77
2023-01-10T14:06:30.567Z,6.77
2023-01-10T14:09:04.691Z,6.76
2023-01-10T14:11:43.451Z,6.75
2023-01-10T14:14:33.817Z,6.76
2023-01-10T14:17:24.104Z,6.84
2023-01-10T14:20:04.569Z,6.75
2023-01-10T14:22:35.335Z,6.71
2023-01-10T14:25:05.463Z,6.71
2023-01-10T14:27:42.996Z,6.74
2023-01-10T14:30:19.199Z,6.75
2023-01-10T14:32:51.008Z,6.79
2023-01-10T14:35:24.778Z,6.79
2023-01-10T14:37:54.866Z,6.78
2023-01-10T14:40:35.707Z,6.76
2023-01-10T14:43:06.585Z,6.71
2023-01-10T14:45:33.259Z,6.79
2023-01-10T14:47:59.906Z,6.80
2023-01-10T14:50:30.354Z,6.68
2023-01-10T14:52:58.040Z,6.66
2023-01-10T14:55:24.861Z,6.65
2023-01-10T14:58:00.299Z,6.62
2023-01-10T15:00:33.306Z,6.57
2023-01-10T15:03:04.139Z,6.57
2023-01-10T15:05:36.407Z,6.59
2023-01-10T15:08:17.315Z,6.61
2023-01-10T15:10:44.446Z,6.64
2023-01-10T15:13:15.745Z,6.53
2023-01-10T15:15:45.780Z,6.54
2023-01-10T15:18:28.382Z,6.54
2023-01-10T15:20:56.409Z,6.51
2023-01-10T15:23:27.106Z,6.50
2023-01-10T15:26:01.345Z,6.41
2023-01-10T15:28:29.959Z,6.43
2023-01-10T15:30:58.261Z,6.41
2023-01-10T15:33:32.781Z,6.38
2023-01-10T15:36:08.251Z,6.41
2023-01-10T15:38:41.551Z,6.40
2023-01-10T15:41:08.628Z,6.45
2023-01-10T15:43:36.782Z,6.46
2023-01-10T15:46:05.119Z,6.38
2023-01-10T15:48:43.937Z,6.38
2023-01-10T15:51:22.675Z,6.44
2023-01-10T15:54:03.040Z,6.41
2023-01-10T15:56:29.698Z,6.38
2023-01-10T15:58:58.701Z,6.40
2023-01-10T16:01:28.712Z,6.28
2023-01-10T16:03:58.641Z,6.26
2023-01-10T16:06:36.937Z,6.28
2023-01-10T16:09:07.481Z,6.29
2023-01-10T16:12:06.292Z,6.30
2023-01-10T16:14:36.202Z,6.31
2023-01-10T16:17:03.980Z,6.29
2023-01-10T16:19:30.668Z,6.33
2023-01-10T16:21:59.024Z,6.33
2023-01-10T16:24:29.237Z,6.30
2023-01-10T16:26:58.327Z,6.30
2023-01-10T16:29:25.220Z,6.27
2023-01-10T16:31:53.200Z,6.27
2023-01-10T16:34:20.565Z,6.27
2023-01-10T16:36:47.599Z,6.28
2023-01-10T16:39:20.013Z,6.29
2023-01-10T16:42:05.802Z,6.27
2023-01-10T16:44:33.515Z,6.24
2023-01-10T16:47:01.081Z,6.26
2023-01-10T16:49:28.221Z,6.30
2023-01-10T16:51:57.011Z,6.27
2023-01-10T16:54:25.817Z,6.26
2023-01-10T16:56:52.555Z,6.28
2023-01-10T16:59:20.290Z,6.29
2023-01-10T17:01:53.012Z,6.30
2023-01-10T17:04:22.759Z,6.27
2023-01-10T17:06:49.603Z,6.31
2023-01-10T17:09:28.100Z,6.29
2023-01-10T17:12:01.876Z,6.33
2023-01-10T17:14:30.062Z,6.33
2023-01-10T17:16:56.929Z,6.35
2023-01-10T17:19:24.348Z,6.34
2023-01-10T17:21:51.116Z,6.33
2023-01-10T17:24:17.788Z,6.36
2023-01-10T17:26:44.530Z,6.32
2023-01-10T17:29:11.025Z,6.33
2023-01-10T17:31:38.171Z,6.34
2023-01-10T17:34:04.996Z,6.36
2023-01-10T17:36:38.361Z,6.34
2023-01-10T17:39:06.416Z,6.36
2023-01-10T17:41:34.695Z,6.37
2023-01-10T17:44:01.883Z,6.36
2023-01-10T17:46:28.764Z,6.35
2023-01-10T17:48:55.252Z,6.34
2023-01-10T17:51:24.447Z,6.37
2023-01-10T17:53:51.697Z,6.35
2023-01-10T17:56:18.141Z,6.35
2023-01-10T17:58:44.568Z,6.34
2023-01-10T18:01:19.177Z,6.35
2023-01-10T18:03:46.189Z,6.34
2023-01-10T18:06:23.403Z,6.35
2023-01-10T18:08:50.568Z,6.38
2023-01-10T18:11:17.178Z,6.35
2023-01-10T18:13:43.680Z,6.39
2023-01-10T18:16:10.112Z,6.34
2023-01-10T18:18:37.167Z,6.37
2023-01-10T18:21:05.227Z,6.34
2023-01-10T18:23:32.702Z,6.38
2023-01-10T18:26:04.775Z,6.39
2023-01-10T18:28:40.801Z,6.37
2023-01-10T18:31:17.162Z,6.41
2023-01-10T18:33:44.922Z,6.40
2023-01-10T18:36:17.455Z,6.43
2023-01-10T18:38:45.773Z,6.41
2023-01-10T18:41:12.512Z,6.45
2023-01-10T18:43:39.115Z,6.43
2023-01-10T18:46:26.322Z,6.45
2023-01-10T18:48:53.169Z,6.44
2023-01-10T18:51:19.781Z,6.46
2023-01-10T18:53:47.471Z,6.47
2023-01-10T18:56:14.671Z,6.47
2023-01-10T18:58:43.157Z,6.45
2023-01-10T19:01:15.644Z,6.48
2023-01-10T19:03:43.025Z,6.44
2023-01-10T19:06:11.917Z,6.44
2023-01-10T19:08:39.496Z,6.49
2023-01-10T19:11:13.960Z,6.45
2023-01-10T19:13:41.389Z,6.44
2023-01-10T19:16:18.627Z,6.42
2023-01-10T19:18:49.888Z,6.43
2023-01-10T19:21:16.581Z,6.42
2023-01-10T19:23:44.721Z,6.43
2023-01-10T19:26:12.148Z,6.44
2023-01-10T19:28:38.893Z,6.43
2023-01-10T19:31:05.743Z,6.43
2023-01-10T19:33:34.492Z,6.44
2023-01-10T19:36:07.946Z,6.45
2023-01-10T19:38:34.691Z,6.40
2023-01-10T19:41:01.447Z,6.38
2023-01-10T19:43:28.190Z,6.37
2023-01-10T19:45:55.089Z,6.34
2023-01-10T19:48:22.668Z,6.33
2023-01-10T19:50:49.378Z,6.22
2023-01-10T19:53:16.827Z,6.22
2023-01-10T19:55:43.341Z,6.19
2023-01-10T19:58:09.853Z,6.14
2023-01-10T20:00:36.444Z,6.08
2023-01-10T20:03:05.094Z,6.07
2023-01-10T20:05:34.762Z,6.01
2023-01-10T20:08:01.921Z,6.01
2023-01-10T20:10:28.599Z,6.02
2023-01-10T20:12:55.018Z,5.96
2023-01-10T20:15:21.655Z,5.98
2023-01-10T20:17:48.331Z,5.94
2023-01-10T20:20:16.808Z,5.94
2023-01-10T20:22:43.461Z,5.97
2023-01-10T20:25:10.690Z,5.90
2023-01-10T20:27:37.170Z,5.89
2023-01-10T20:30:04.480Z,5.89
2023-01-10T20:32:31.512Z,5.88
2023-01-10T20:34:58.221Z,5.81
2023-01-10T20:37:24.945Z,5.78
2023-01-10T20:39:52.169Z,5.80
2023-01-10T20:42:18.607Z,5.85
2023-01-10T20:44:45.255Z,5.88
2023-01-10T20:47:12.070Z,5.84
2023-01-10T20:49:38.819Z,5.84
2023-01-10T20:52:05.370Z,5.86
2023-01-10T20:54:31.982Z,5.87
2023-01-10T20:56:58.578Z,5.85
2023-01-10T20:59:28.755Z,5.84
2023-01-10T21:01:55.787Z,5.82
2023-01-10T21:04:22.323Z,5.90
2023-01-10T21:06:49.626Z,5.85
2023-01-10T21:09:16.652Z,5.88
2023-01-10T21:11:58.069Z,5.95
2023-01-10T21:14:27.041Z,5.91
2023-01-10T21:16:56.999Z,5.92
2023-01-10T21:19:23.772Z,5.91
2023-01-10T21:21:50.215Z,5.93
2023-01-10T21:24:17.236Z,5.97
2023-01-10T21:26:43.733Z,5.94
2023-01-10T21:29:12.858Z,5.92
2023-01-10T21:31:39.658Z,5.92
2023-01-10T21:34:06.417Z,5.92
2023-01-10T21:36:32.794Z,5.95
2023-01-10T21:38:59.276Z,5.96
2023-01-10T21:41:44.448Z,6.00
2023-01-10T21:44:10.956Z,6.00
2023-01-10T21:46:37.902Z,6.04
2023-01-10T21:49:05.186Z,6.06
2023-01-10T21:51:31.711Z,6.04
2023-01-10T21:53:59.298Z,6.07
2023-01-10T21:56:25.851Z,6.04
2023-01-10T21:58:52.748Z,6.10
2023-01-10T22:04:00.171Z,6.09
2023-01-10T22:06:27.645Z,6.03
2023-01-10T22:08:54.391Z,6.07
2023-01-10T22:11:21.211Z,6.11
2023-01-10T22:13:47.877Z,6.14
2023-01-10T22:16:14.750Z,6.10
2023-01-10T22:18:41.195Z,6.07
2023-01-10T22:21:08.253Z,6.01
2023-01-10T22:23:34.846Z,6.11
2023-01-10T22:26:02.602Z,6.05
2023-01-10T22:28:29.639Z,6.01
2023-01-10T22:30:56.319Z,6.03
2023-01-10T22:33:23.786Z,6.02
2023-01-10T22:35:50.532Z,6.07
2023-01-10T22:38:17.320Z,6.07
2023-01-10T22:40:44.030Z,6.09
2023-01-10T22:43:10.776Z,6.08
2023-01-10T22:45:41.826Z,6.14
2023-01-10T22:48:09.533Z,6.06
2023-01-10T22:50:36.829Z,6.06
2023-01-10T22:53:04.425Z,6.11
2023-01-10T22:55:31.217Z,6.13
2023-01-10T22:57:57.657Z,6.14
2023-01-10T23:00:24.323Z,6.16
2023-01-10T23:02:51.079Z,6.13
2023-01-10T23:05:17.570Z,6.16
2023-01-10T23:07:44.427Z,6.23
2023-01-10T23:10:28.484Z,6.21
2023-01-10T23:12:55.817Z,6.21
2023-01-10T23:15:22.642Z,6.30
2023-01-10T23:17:49.367Z,6.33
2023-01-10T23:20:16.695Z,6.29
2023-01-10T23:22:43.958Z,6.26
2023-01-10T23:25:10.607Z,6.34
2023-01-10T23:27:38.337Z,6.32
2023-01-10T23:30:06.972Z,6.36
2023-01-10T23:32:34.376Z,6.32
2023-01-10T23:35:01.093Z,6.33
2023-01-10T23:37:27.845Z,6.33
2023-01-10T23:39:55.390Z,6.29
2023-01-10T23:42:22.240Z,6.33
2023-01-10T23:44:48.720Z,6.38
2023-01-10T23:47:15.279Z,6.33
2023-01-10T23:49:41.938Z,6.37
2023-01-10T23:52:08.573Z,6.34
2023-01-10T23:54:35.084Z,6.39
2023-01-10T23:57:01.800Z,6.36
2023-01-10T23:59:28.633Z,6.30
